sensor_id;sensor_type;location;lat;lon;timestamp;P1;durP1;ratioP1;P2;durP2;ratioP2
9240;SDS011;53485;49.326;9.738;2022-11-20T00:02:12;28.27;;;13.73;;
9240;SDS011;53485;49.326;9.738;2022-11-20T00:04:39;23.27;;;11.97;;
9240;SDS011;53485;49.326;9.738;2022-11-20T00:07:06;22.40;;;11.80;;
9240;SDS011;53485;49.326;9.738;2022-11-20T00:09:34;24.00;;;12.73;;
9240;SDS011;53485;49.326;9.738;2022-11-20T00:12:01;21.33;;;12.23;;
9240;SDS011;53485;49.326;9.738;2022-11-20T00:14:29;25.17;;;12.53;;
9240;SDS011;53485;49.326;9.738;2022-11-20T00:16:56;22.13;;;12.33;;
9240;SDS011;53485;49.326;9.738;2022-11-20T00:19:24;22.90;;;12.57;;
9240;SDS011;53485;49.326;9.738;2022-11-20T00:21:51;23.50;;;12.53;;
9240;SDS011;53485;49.326;9.738;2022-11-20T00:24:18;21.50;;;11.27;;
9240;SDS011;53485;49.326;9.738;2022-11-20T00:26:45;24.23;;;12.97;;
9240;SDS011;53485;49.326;9.738;2022-11-20T00:29:13;19.50;;;11.10;;
9240;SDS011;53485;49.326;9.738;2022-11-20T00:31:40;23.20;;;12.33;;
9240;SDS011;53485;49.326;9.738;2022-11-20T00:34:08;23.50;;;12.40;;
9240;SDS011;53485;49.326;9.738;2022-11-20T00:36:34;23.30;;;12.03;;
9240;SDS011;53485;49.326;9.738;2022-11-20T00:39:02;21.57;;;11.30;;
9240;SDS011;53485;49.326;9.738;2022-11-20T00:41:29;22.33;;;12.17;;
9240;SDS011;53485;49.326;9.738;2022-11-20T00:43:56;21.40;;;11.53;;
9240;SDS011;53485;49.326;9.738;2022-11-20T00:46:24;22.73;;;11.70;;
9240;SDS011;53485;49.326;9.738;2022-11-20T00:48:51;22.73;;;11.47;;
9240;SDS011;53485;49.326;9.738;2022-11-20T00:51:19;21.83;;;11.77;;
9240;SDS011;53485;49.326;9.738;2022-11-20T00:53:45;19.70;;;11.40;;
9240;SDS011;53485;49.326;9.738;2022-11-20T00:56:13;21.57;;;11.70;;
9240;SDS011;53485;49.326;9.738;2022-11-20T00:58:40;21.87;;;11.67;;
9240;SDS011;53485;49.326;9.738;2022-11-20T01:01:09;20.47;;;11.57;;
9240;SDS011;53485;49.326;9.738;2022-11-20T01:03:36;21.80;;;10.60;;
9240;SDS011;53485;49.326;9.738;2022-11-20T01:06:03;16.77;;;9.67;;
9240;SDS011;53485;49.326;9.738;2022-11-20T01:08:29;15.00;;;9.07;;
9240;SDS011;53485;49.326;9.738;2022-11-20T01:10:58;14.37;;;8.17;;
9240;SDS011;53485;49.326;9.738;2022-11-20T01:13:28;15.03;;;8.87;;
9240;SDS011;53485;49.326;9.738;2022-11-20T01:16:09;15.80;;;8.73;;
9240;SDS011;53485;49.326;9.738;2022-11-20T01:18:38;18.23;;;10.47;;
9240;SDS011;53485;49.326;9.738;2022-11-20T01:21:05;16.47;;;9.23;;
9240;SDS011;53485;49.326;9.738;2022-11-20T01:23:35;16.43;;;9.40;;
9240;SDS011;53485;49.326;9.738;2022-11-20T01:26:03;21.33;;;11.07;;
9240;SDS011;53485;49.326;9.738;2022-11-20T01:28:29;18.97;;;10.47;;
9240;SDS011;53485;49.326;9.738;2022-11-20T01:30:55;17.63;;;9.97;;
9240;SDS011;53485;49.326;9.738;2022-11-20T01:33:22;20.60;;;10.83;;
9240;SDS011;53485;49.326;9.738;2022-11-20T01:35:49;19.03;;;9.80;;
9240;SDS011;53485;49.326;9.738;2022-11-20T01:38:16;18.00;;;10.13;;
9240;SDS011;53485;49.326;9.738;2022-11-20T01:40:43;20.53;;;10.77;;
9240;SDS011;53485;49.326;9.738;2022-11-20T01:43:15;20.83;;;10.50;;
9240;SDS011;53485;49.326;9.738;2022-11-20T01:48:19;20.17;;;10.77;;
9240;SDS011;53485;49.326;9.738;2022-11-20T01:50:46;20.97;;;10.77;;
9240;SDS011;53485;49.326;9.738;2022-11-20T01:53:14;21.43;;;11.13;;
9240;SDS011;53485;49.326;9.738;2022-11-20T01:55:41;19.00;;;10.47;;
9240;SDS011;53485;49.326;9.738;2022-11-20T01:58:07;17.93;;;9.60;;
9240;SDS011;53485;49.326;9.738;2022-11-20T02:00:34;19.10;;;10.40;;
9240;SDS011;53485;49.326;9.738;2022-11-20T02:03:03;16.03;;;9.20;;
9240;SDS011;53485;49.326;9.738;2022-11-20T02:05:32;18.23;;;9.50;;
9240;SDS011;53485;49.326;9.738;2022-11-20T02:07:59;15.43;;;8.50;;
9240;SDS011;53485;49.326;9.738;2022-11-20T02:10:26;15.80;;;8.70;;
9240;SDS011;53485;49.326;9.738;2022-11-20T02:12:53;14.47;;;8.57;;
9240;SDS011;53485;49.326;9.738;2022-11-20T02:15:25;17.43;;;8.77;;
9240;SDS011;53485;49.326;9.738;2022-11-20T02:17:53;18.30;;;9.73;;
9240;SDS011;53485;49.326;9.738;2022-11-20T02:20:20;19.57;;;10.33;;
9240;SDS011;53485;49.326;9.738;2022-11-20T02:22:55;17.87;;;9.27;;
9240;SDS011;53485;49.326;9.738;2022-11-20T02:25:25;18.53;;;10.00;;
9240;SDS011;53485;49.326;9.738;2022-11-20T02:27:51;22.93;;;10.47;;
9240;SDS011;53485;49.326;9.738;2022-11-20T02:30:18;18.33;;;9.60;;
9240;SDS011;53485;49.326;9.738;2022-11-20T02:32:45;21.03;;;10.17;;
9240;SDS011;53485;49.326;9.738;2022-11-20T02:38:02;28.40;;;11.50;;
9240;SDS011;53485;49.326;9.738;2022-11-20T02:40:29;32.50;;;11.30;;
9240;SDS011;53485;49.326;9.738;2022-11-20T02:42:57;28.20;;;10.57;;
9240;SDS011;53485;49.326;9.738;2022-11-20T02:45:24;31.47;;;11.70;;
9240;SDS011;53485;49.326;9.738;2022-11-20T02:47:51;38.50;;;13.07;;
9240;SDS011;53485;49.326;9.738;2022-11-20T02:50:18;42.53;;;12.30;;
9240;SDS011;53485;49.326;9.738;2022-11-20T02:52:45;46.67;;;12.20;;
9240;SDS011;53485;49.326;9.738;2022-11-20T02:55:13;62.00;;;14.80;;
9240;SDS011;53485;49.326;9.738;2022-11-20T02:57:40;67.10;;;16.20;;
9240;SDS011;53485;49.326;9.738;2022-11-20T03:00:08;70.47;;;15.47;;
9240;SDS011;53485;49.326;9.738;2022-11-20T03:02:36;49.80;;;14.50;;
9240;SDS011;53485;49.326;9.738;2022-11-20T03:05:03;69.20;;;15.77;;
9240;SDS011;53485;49.326;9.738;2022-11-20T03:07:30;76.80;;;17.20;;
9240;SDS011;53485;49.326;9.738;2022-11-20T03:09:58;65.33;;;14.90;;
9240;SDS011;53485;49.326;9.738;2022-11-20T03:12:25;52.63;;;15.53;;
9240;SDS011;53485;49.326;9.738;2022-11-20T03:14:53;95.97;;;18.10;;
9240;SDS011;53485;49.326;9.738;2022-11-20T03:17:20;62.57;;;16.87;;
9240;SDS011;53485;49.326;9.738;2022-11-20T03:19:48;49.47;;;16.97;;
9240;SDS011;53485;49.326;9.738;2022-11-20T03:22:15;77.53;;;17.57;;
9240;SDS011;53485;49.326;9.738;2022-11-20T03:24:42;95.23;;;19.33;;
9240;SDS011;53485;49.326;9.738;2022-11-20T03:27:10;145.87;;;26.77;;
9240;SDS011;53485;49.326;9.738;2022-11-20T03:29:37;66.07;;;19.57;;
9240;SDS011;53485;49.326;9.738;2022-11-20T03:32:05;70.27;;;20.47;;
9240;SDS011;53485;49.326;9.738;2022-11-20T03:34:32;99.93;;;22.50;;
9240;SDS011;53485;49.326;9.738;2022-11-20T03:36:59;92.57;;;21.43;;
9240;SDS011;53485;49.326;9.738;2022-11-20T03:39:26;184.33;;;30.20;;
9240;SDS011;53485;49.326;9.738;2022-11-20T03:41:54;164.57;;;29.13;;
9240;SDS011;53485;49.326;9.738;2022-11-20T03:44:21;154.60;;;32.07;;
9240;SDS011;53485;49.326;9.738;2022-11-20T03:46:49;143.57;;;28.60;;
9240;SDS011;53485;49.326;9.738;2022-11-20T03:49:16;184.87;;;32.10;;
9240;SDS011;53485;49.326;9.738;2022-11-20T03:51:44;184.93;;;31.97;;
9240;SDS011;53485;49.326;9.738;2022-11-20T03:54:11;153.43;;;26.90;;
9240;SDS011;53485;49.326;9.738;2022-11-20T03:56:38;104.93;;;24.53;;
9240;SDS011;53485;49.326;9.738;2022-11-20T03:59:06;117.13;;;23.43;;
9240;SDS011;53485;49.326;9.738;2022-11-20T04:01:34;120.30;;;24.43;;
9240;SDS011;53485;49.326;9.738;2022-11-20T04:03:59;239.17;;;38.77;;
9240;SDS011;53485;49.326;9.738;2022-11-20T04:06:27;138.20;;;27.13;;
9240;SDS011;53485;49.326;9.738;2022-11-20T04:08:54;87.50;;;23.90;;
9240;SDS011;53485;49.326;9.738;2022-11-20T04:11:22;58.40;;;21.60;;
9240;SDS011;53485;49.326;9.738;2022-11-20T04:13:49;129.83;;;30.10;;
9240;SDS011;53485;49.326;9.738;2022-11-20T04:16:14;69.40;;;22.57;;
9240;SDS011;53485;49.326;9.738;2022-11-20T04:18:41;167.87;;;31.97;;
9240;SDS011;53485;49.326;9.738;2022-11-20T04:21:08;74.00;;;24.20;;
9240;SDS011;53485;49.326;9.738;2022-11-20T04:23:35;64.80;;;20.37;;
9240;SDS011;53485;49.326;9.738;2022-11-20T04:26:04;75.67;;;21.03;;
9240;SDS011;53485;49.326;9.738;2022-11-20T04:28:30;45.43;;;18.50;;
9240;SDS011;53485;49.326;9.738;2022-11-20T04:31:02;41.30;;;18.13;;
9240;SDS011;53485;49.326;9.738;2022-11-20T04:33:32;35.67;;;16.53;;
9240;SDS011;53485;49.326;9.738;2022-11-20T04:36:02;43.53;;;16.37;;
9240;SDS011;53485;49.326;9.738;2022-11-20T04:38:28;34.20;;;14.80;;
9240;SDS011;53485;49.326;9.738;2022-11-20T04:40:56;36.80;;;14.63;;
9240;SDS011;53485;49.326;9.738;2022-11-20T04:43:22;33.77;;;14.57;;
9240;SDS011;53485;49.326;9.738;2022-11-20T04:45:51;39.47;;;15.03;;
9240;SDS011;53485;49.326;9.738;2022-11-20T04:48:17;33.90;;;14.50;;
9240;SDS011;53485;49.326;9.738;2022-11-20T04:50:45;30.77;;;13.17;;
9240;SDS011;53485;49.326;9.738;2022-11-20T04:53:12;32.53;;;13.90;;
9240;SDS011;53485;49.326;9.738;2022-11-20T04:55:39;30.93;;;12.47;;
9240;SDS011;53485;49.326;9.738;2022-11-20T04:58:07;22.60;;;10.97;;
9240;SDS011;53485;49.326;9.738;2022-11-20T05:00:34;22.80;;;10.13;;
9240;SDS011;53485;49.326;9.738;2022-11-20T05:03:01;26.77;;;10.70;;
9240;SDS011;53485;49.326;9.738;2022-11-20T05:05:29;17.77;;;9.77;;
9240;SDS011;53485;49.326;9.738;2022-11-20T05:07:57;22.53;;;10.50;;
9240;SDS011;53485;49.326;9.738;2022-11-20T05:10:23;22.57;;;10.47;;
9240;SDS011;53485;49.326;9.738;2022-11-20T05:12:50;23.30;;;10.53;;
9240;SDS011;53485;49.326;9.738;2022-11-20T05:15:17;22.90;;;11.43;;
9240;SDS011;53485;49.326;9.738;2022-11-20T05:17:47;25.83;;;10.97;;
9240;SDS011;53485;49.326;9.738;2022-11-20T05:20:14;20.03;;;10.30;;
9240;SDS011;53485;49.326;9.738;2022-11-20T05:22:41;21.63;;;11.17;;
9240;SDS011;53485;49.326;9.738;2022-11-20T05:25:08;20.97;;;11.63;;
9240;SDS011;53485;49.326;9.738;2022-11-20T05:27:35;22.10;;;11.63;;
9240;SDS011;53485;49.326;9.738;2022-11-20T05:30:02;23.80;;;13.33;;
9240;SDS011;53485;49.326;9.738;2022-11-20T05:32:29;28.13;;;13.27;;
9240;SDS011;53485;49.326;9.738;2022-11-20T05:34:56;27.13;;;13.00;;
9240;SDS011;53485;49.326;9.738;2022-11-20T05:37:23;29.50;;;13.43;;
9240;SDS011;53485;49.326;9.738;2022-11-20T05:39:51;22.23;;;12.53;;
9240;SDS011;53485;49.326;9.738;2022-11-20T05:42:18;31.10;;;14.53;;
9240;SDS011;53485;49.326;9.738;2022-11-20T05:44:51;26.40;;;14.53;;
9240;SDS011;53485;49.326;9.738;2022-11-20T05:47:19;25.90;;;13.00;;
9240;SDS011;53485;49.326;9.738;2022-11-20T05:49:46;27.50;;;14.57;;
9240;SDS011;53485;49.326;9.738;2022-11-20T05:52:13;26.23;;;13.87;;
9240;SDS011;53485;49.326;9.738;2022-11-20T05:54:41;26.87;;;13.87;;
9240;SDS011;53485;49.326;9.738;2022-11-20T05:57:08;24.80;;;13.97;;
9240;SDS011;53485;49.326;9.738;2022-11-20T05:59:35;26.20;;;13.27;;
9240;SDS011;53485;49.326;9.738;2022-11-20T06:04:45;32.53;;;17.10;;
9240;SDS011;53485;49.326;9.738;2022-11-20T06:07:12;25.53;;;13.37;;
9240;SDS011;53485;49.326;9.738;2022-11-20T06:09:39;25.70;;;12.90;;
9240;SDS011;53485;49.326;9.738;2022-11-20T06:12:06;27.33;;;13.70;;
9240;SDS011;53485;49.326;9.738;2022-11-20T06:14:34;23.37;;;12.23;;
9240;SDS011;53485;49.326;9.738;2022-11-20T06:17:01;25.57;;;11.73;;
9240;SDS011;53485;49.326;9.738;2022-11-20T06:19:29;20.40;;;10.73;;
9240;SDS011;53485;49.326;9.738;2022-11-20T06:21:56;16.67;;;9.43;;
9240;SDS011;53485;49.326;9.738;2022-11-20T06:24:23;18.37;;;9.83;;
9240;SDS011;53485;49.326;9.738;2022-11-20T06:26:51;16.53;;;9.17;;
9240;SDS011;53485;49.326;9.738;2022-11-20T06:29:18;18.03;;;8.87;;
9240;SDS011;53485;49.326;9.738;2022-11-20T06:31:46;16.70;;;8.33;;
9240;SDS011;53485;49.326;9.738;2022-11-20T06:34:13;11.57;;;6.83;;
9240;SDS011;53485;49.326;9.738;2022-11-20T06:36:40;13.17;;;6.87;;
9240;SDS011;53485;49.326;9.738;2022-11-20T06:39:08;11.80;;;6.43;;
9240;SDS011;53485;49.326;9.738;2022-11-20T06:41:35;11.70;;;6.70;;
9240;SDS011;53485;49.326;9.738;2022-11-20T06:44:03;12.80;;;6.17;;
9240;SDS011;53485;49.326;9.738;2022-11-20T06:46:29;8.80;;;5.33;;
9240;SDS011;53485;49.326;9.738;2022-11-20T06:48:57;10.07;;;5.73;;
9240;SDS011;53485;49.326;9.738;2022-11-20T06:51:24;12.30;;;5.70;;
9240;SDS011;53485;49.326;9.738;2022-11-20T06:53:51;10.53;;;5.47;;
9240;SDS011;53485;49.326;9.738;2022-11-20T06:56:18;10.37;;;5.63;;
9240;SDS011;53485;49.326;9.738;2022-11-20T06:58:46;10.80;;;5.83;;
9240;SDS011;53485;49.326;9.738;2022-11-20T07:01:13;9.67;;;5.63;;
9240;SDS011;53485;49.326;9.738;2022-11-20T07:03:40;10.53;;;5.03;;
9240;SDS011;53485;49.326;9.738;2022-11-20T07:06:06;7.90;;;5.37;;
9240;SDS011;53485;49.326;9.738;2022-11-20T07:08:33;9.80;;;5.27;;
9240;SDS011;53485;49.326;9.738;2022-11-20T07:11:01;7.23;;;4.97;;
9240;SDS011;53485;49.326;9.738;2022-11-20T07:13:27;9.80;;;5.50;;
9240;SDS011;53485;49.326;9.738;2022-11-20T07:15:54;9.80;;;5.97;;
9240;SDS011;53485;49.326;9.738;2022-11-20T07:18:20;11.67;;;5.93;;
9240;SDS011;53485;49.326;9.738;2022-11-20T07:20:47;10.97;;;6.07;;
9240;SDS011;53485;49.326;9.738;2022-11-20T07:23:15;10.07;;;6.03;;
9240;SDS011;53485;49.326;9.738;2022-11-20T07:25:42;10.53;;;6.10;;
9240;SDS011;53485;49.326;9.738;2022-11-20T07:28:10;10.97;;;6.40;;
9240;SDS011;53485;49.326;9.738;2022-11-20T07:30:37;9.80;;;6.10;;
9240;SDS011;53485;49.326;9.738;2022-11-20T07:33:04;12.17;;;6.77;;
9240;SDS011;53485;49.326;9.738;2022-11-20T07:35:32;11.90;;;6.93;;
9240;SDS011;53485;49.326;9.738;2022-11-20T07:37:59;13.57;;;7.57;;
9240;SDS011;53485;49.326;9.738;2022-11-20T07:40:27;14.77;;;7.87;;
9240;SDS011;53485;49.326;9.738;2022-11-20T07:42:54;13.87;;;8.43;;
9240;SDS011;53485;49.326;9.738;2022-11-20T07:45:21;13.30;;;8.60;;
9240;SDS011;53485;49.326;9.738;2022-11-20T07:47:48;14.67;;;8.33;;
9240;SDS011;53485;49.326;9.738;2022-11-20T07:50:15;14.20;;;8.57;;
9240;SDS011;53485;49.326;9.738;2022-11-20T07:52:42;16.73;;;10.20;;
9240;SDS011;53485;49.326;9.738;2022-11-20T07:55:09;13.80;;;8.70;;
9240;SDS011;53485;49.326;9.738;2022-11-20T07:57:36;14.50;;;8.93;;
9240;SDS011;53485;49.326;9.738;2022-11-20T08:00:04;18.03;;;10.00;;
9240;SDS011;53485;49.326;9.738;2022-11-20T08:02:31;16.70;;;9.67;;
9240;SDS011;53485;49.326;9.738;2022-11-20T08:04:59;16.30;;;10.20;;
9240;SDS011;53485;49.326;9.738;2022-11-20T08:07:26;14.57;;;9.17;;
9240;SDS011;53485;49.326;9.738;2022-11-20T08:09:53;16.33;;;10.73;;
9240;SDS011;53485;49.326;9.738;2022-11-20T08:12:21;16.07;;;10.20;;
9240;SDS011;53485;49.326;9.738;2022-11-20T08:14:54;16.80;;;10.33;;
9240;SDS011;53485;49.326;9.738;2022-11-20T08:17:21;15.80;;;9.60;;
9240;SDS011;53485;49.326;9.738;2022-11-20T08:19:48;17.33;;;10.57;;
9240;SDS011;53485;49.326;9.738;2022-11-20T08:22:16;16.67;;;10.50;;
9240;SDS011;53485;49.326;9.738;2022-11-20T08:24:43;17.80;;;10.13;;
9240;SDS011;53485;49.326;9.738;2022-11-20T08:27:10;20.47;;;11.10;;
9240;SDS011;53485;49.326;9.738;2022-11-20T08:29:38;23.97;;;11.57;;
9240;SDS011;53485;49.326;9.738;2022-11-20T08:32:05;19.27;;;11.70;;
9240;SDS011;53485;49.326;9.738;2022-11-20T08:34:32;19.53;;;11.10;;
9240;SDS011;53485;49.326;9.738;2022-11-20T08:37:01;21.73;;;11.80;;
9240;SDS011;53485;49.326;9.738;2022-11-20T08:39:26;20.03;;;11.73;;
9240;SDS011;53485;49.326;9.738;2022-11-20T08:41:54;18.63;;;11.37;;
9240;SDS011;53485;49.326;9.738;2022-11-20T08:44:21;21.20;;;11.90;;
9240;SDS011;53485;49.326;9.738;2022-11-20T08:46:48;18.87;;;10.97;;
9240;SDS011;53485;49.326;9.738;2022-11-20T08:49:16;17.00;;;10.47;;
9240;SDS011;53485;49.326;9.738;2022-11-20T08:51:42;14.17;;;9.50;;
9240;SDS011;53485;49.326;9.738;2022-11-20T08:54:10;14.40;;;8.97;;
9240;SDS011;53485;49.326;9.738;2022-11-20T08:56:37;16.27;;;10.30;;
9240;SDS011;53485;49.326;9.738;2022-11-20T08:59:04;12.03;;;8.47;;
9240;SDS011;53485;49.326;9.738;2022-11-20T09:01:32;11.00;;;7.90;;
9240;SDS011;53485;49.326;9.738;2022-11-20T09:03:59;11.43;;;8.47;;
9240;SDS011;53485;49.326;9.738;2022-11-20T09:06:27;13.33;;;8.60;;
9240;SDS011;53485;49.326;9.738;2022-11-20T09:08:54;12.87;;;8.17;;
9240;SDS011;53485;49.326;9.738;2022-11-20T09:11:21;11.60;;;8.00;;
9240;SDS011;53485;49.326;9.738;2022-11-20T09:13:48;11.93;;;7.40;;
9240;SDS011;53485;49.326;9.738;2022-11-20T09:16:15;10.03;;;7.07;;
9240;SDS011;53485;49.326;9.738;2022-11-20T09:18:43;10.53;;;7.57;;
9240;SDS011;53485;49.326;9.738;2022-11-20T09:21:11;10.67;;;7.43;;
9240;SDS011;53485;49.326;9.738;2022-11-20T09:23:37;10.47;;;8.03;;
9240;SDS011;53485;49.326;9.738;2022-11-20T09:26:04;9.67;;;7.20;;
9240;SDS011;53485;49.326;9.738;2022-11-20T09:28:31;10.03;;;7.37;;
9240;SDS011;53485;49.326;9.738;2022-11-20T09:30:58;9.93;;;8.03;;
9240;SDS011;53485;49.326;9.738;2022-11-20T09:33:25;9.93;;;7.73;;
9240;SDS011;53485;49.326;9.738;2022-11-20T09:35:52;8.97;;;6.93;;
9240;SDS011;53485;49.326;9.738;2022-11-20T09:38:19;11.07;;;7.87;;
9240;SDS011;53485;49.326;9.738;2022-11-20T09:40:49;10.50;;;7.90;;
9240;SDS011;53485;49.326;9.738;2022-11-20T09:43:18;12.40;;;8.20;;
9240;SDS011;53485;49.326;9.738;2022-11-20T09:46:53;9.67;;;7.80;;
9240;SDS011;53485;49.326;9.738;2022-11-20T09:48:44;9.77;;;7.93;;
9240;SDS011;53485;49.326;9.738;2022-11-20T09:54:00;10.73;;;7.70;;
9240;SDS011;53485;49.326;9.738;2022-11-20T09:56:27;13.43;;;9.20;;
9240;SDS011;53485;49.326;9.738;2022-11-20T09:58:54;11.53;;;7.77;;
9240;SDS011;53485;49.326;9.738;2022-11-20T10:01:22;9.23;;;7.90;;
9240;SDS011;53485;49.326;9.738;2022-11-20T10:03:57;7.30;;;6.60;;
9240;SDS011;53485;49.326;9.738;2022-11-20T10:06:30;8.73;;;6.73;;
9240;SDS011;53485;49.326;9.738;2022-11-20T10:09:00;11.80;;;7.97;;
9240;SDS011;53485;49.326;9.738;2022-11-20T10:11:46;11.50;;;8.53;;
9240;SDS011;53485;49.326;9.738;2022-11-20T10:14:26;8.80;;;6.40;;
9240;SDS011;53485;49.326;9.738;2022-11-20T10:18:14;10.87;;;7.57;;
9240;SDS011;53485;49.326;9.738;2022-11-20T10:20:17;9.93;;;8.00;;
9240;SDS011;53485;49.326;9.738;2022-11-20T10:22:55;9.57;;;7.63;;
9240;SDS011;53485;49.326;9.738;2022-11-20T10:25:37;9.63;;;7.70;;
9240;SDS011;53485;49.326;9.738;2022-11-20T10:28:10;11.27;;;8.67;;
9240;SDS011;53485;49.326;9.738;2022-11-20T10:30:37;9.97;;;8.27;;
9240;SDS011;53485;49.326;9.738;2022-11-20T10:33:05;9.83;;;7.90;;
9240;SDS011;53485;49.326;9.738;2022-11-20T10:35:34;11.50;;;8.57;;
9240;SDS011;53485;49.326;9.738;2022-11-20T10:38:03;11.10;;;8.93;;
9240;SDS011;53485;49.326;9.738;2022-11-20T10:40:34;11.77;;;9.30;;
9240;SDS011;53485;49.326;9.738;2022-11-20T10:43:00;11.47;;;9.00;;
9240;SDS011;53485;49.326;9.738;2022-11-20T10:48:11;16.27;;;10.77;;
9240;SDS011;53485;49.326;9.738;2022-11-20T10:53:31;16.13;;;10.97;;
9240;SDS011;53485;49.326;9.738;2022-11-20T10:59:03;12.13;;;9.63;;
9240;SDS011;53485;49.326;9.738;2022-11-20T11:01:27;17.47;;;11.87;;
9240;SDS011;53485;49.326;9.738;2022-11-20T11:03:54;17.40;;;11.97;;
9240;SDS011;53485;49.326;9.738;2022-11-20T11:06:25;20.47;;;13.33;;
9240;SDS011;53485;49.326;9.738;2022-11-20T11:08:51;19.77;;;14.10;;
9240;SDS011;53485;49.326;9.738;2022-11-20T11:11:20;20.03;;;12.80;;
9240;SDS011;53485;49.326;9.738;2022-11-20T11:13:46;16.60;;;12.00;;
9240;SDS011;53485;49.326;9.738;2022-11-20T11:16:21;14.67;;;11.17;;
9240;SDS011;53485;49.326;9.738;2022-11-20T11:18:48;17.93;;;13.37;;
9240;SDS011;53485;49.326;9.738;2022-11-20T11:21:21;16.33;;;11.70;;
9240;SDS011;53485;49.326;9.738;2022-11-20T11:23:59;14.60;;;11.97;;
9240;SDS011;53485;49.326;9.738;2022-11-20T11:26:26;13.73;;;11.03;;
9240;SDS011;53485;49.326;9.738;2022-11-20T11:28:53;14.87;;;10.67;;
9240;SDS011;53485;49.326;9.738;2022-11-20T11:31:26;16.90;;;12.10;;
9240;SDS011;53485;49.326;9.738;2022-11-20T11:34:02;17.67;;;11.03;;
9240;SDS011;53485;49.326;9.738;2022-11-20T11:36:21;17.13;;;12.03;;
9240;SDS011;53485;49.326;9.738;2022-11-20T11:38:48;17.40;;;10.77;;
9240;SDS011;53485;49.326;9.738;2022-11-20T11:41:16;13.60;;;10.10;;
9240;SDS011;53485;49.326;9.738;2022-11-20T11:43:40;14.50;;;10.77;;
9240;SDS011;53485;49.326;9.738;2022-11-20T11:46:29;14.27;;;9.97;;
9240;SDS011;53485;49.326;9.738;2022-11-20T11:48:59;13.33;;;10.23;;
9240;SDS011;53485;49.326;9.738;2022-11-20T11:51:29;16.07;;;11.77;;
9240;SDS011;53485;49.326;9.738;2022-11-20T11:53:54;17.67;;;11.53;;
9240;SDS011;53485;49.326;9.738;2022-11-20T11:56:21;15.57;;;10.57;;
9240;SDS011;53485;49.326;9.738;2022-11-20T11:58:50;12.47;;;10.17;;
9240;SDS011;53485;49.326;9.738;2022-11-20T12:01:20;10.70;;;8.93;;
9240;SDS011;53485;49.326;9.738;2022-11-20T12:04:40;10.80;;;8.67;;
9240;SDS011;53485;49.326;9.738;2022-11-20T12:06:58;8.43;;;7.30;;
9240;SDS011;53485;49.326;9.738;2022-11-20T12:09:24;9.97;;;7.53;;
9240;SDS011;53485;49.326;9.738;2022-11-20T12:11:54;9.33;;;7.63;;
9240;SDS011;53485;49.326;9.738;2022-11-20T12:16:56;7.93;;;6.43;;
9240;SDS011;53485;49.326;9.738;2022-11-20T12:19:23;8.20;;;6.47;;
9240;SDS011;53485;49.326;9.738;2022-11-20T12:24:32;8.50;;;6.70;;
9240;SDS011;53485;49.326;9.738;2022-11-20T12:27:06;7.37;;;6.57;;
9240;SDS011;53485;49.326;9.738;2022-11-20T12:30:17;7.30;;;6.20;;
9240;SDS011;53485;49.326;9.738;2022-11-20T12:38:01;9.20;;;7.33;;
9240;SDS011;53485;49.326;9.738;2022-11-20T12:40:28;9.00;;;6.90;;
9240;SDS011;53485;49.326;9.738;2022-11-20T12:48:49;11.43;;;7.47;;
9240;SDS011;53485;49.326;9.738;2022-11-20T12:51:18;9.07;;;8.07;;
9240;SDS011;53485;49.326;9.738;2022-11-20T12:54:00;11.07;;;8.30;;
9240;SDS011;53485;49.326;9.738;2022-11-20T12:56:36;10.43;;;7.77;;
9240;SDS011;53485;49.326;9.738;2022-11-20T12:59:23;9.77;;;6.30;;
9240;SDS011;53485;49.326;9.738;2022-11-20T13:04:56;7.27;;;6.57;;
9240;SDS011;53485;49.326;9.738;2022-11-20T13:07:37;11.57;;;6.50;;
9240;SDS011;53485;49.326;9.738;2022-11-20T13:10:04;6.40;;;5.40;;
9240;SDS011;53485;49.326;9.738;2022-11-20T13:12:33;6.00;;;4.93;;
9240;SDS011;53485;49.326;9.738;2022-11-20T13:17:47;9.83;;;5.73;;
9240;SDS011;53485;49.326;9.738;2022-11-20T13:20:14;6.33;;;4.87;;
9240;SDS011;53485;49.326;9.738;2022-11-20T13:22:46;6.37;;;4.73;;
9240;SDS011;53485;49.326;9.738;2022-11-20T13:27:51;9.37;;;5.17;;
9240;SDS011;53485;49.326;9.738;2022-11-20T13:30:19;6.50;;;5.70;;
9240;SDS011;53485;49.326;9.738;2022-11-20T13:35:34;10.37;;;5.13;;
9240;SDS011;53485;49.326;9.738;2022-11-20T13:40:36;7.03;;;5.90;;
9240;SDS011;53485;49.326;9.738;2022-11-20T13:43:07;6.43;;;4.83;;
9240;SDS011;53485;49.326;9.738;2022-11-20T13:45:31;6.70;;;6.00;;
9240;SDS011;53485;49.326;9.738;2022-11-20T13:47:58;13.97;;;7.77;;
9240;SDS011;53485;49.326;9.738;2022-11-20T13:50:43;5.47;;;4.77;;
9240;SDS011;53485;49.326;9.738;2022-11-20T13:53:25;7.77;;;5.67;;
9240;SDS011;53485;49.326;9.738;2022-11-20T13:55:55;7.13;;;5.57;;
9240;SDS011;53485;49.326;9.738;2022-11-20T13:58:35;8.67;;;5.87;;
9240;SDS011;53485;49.326;9.738;2022-11-20T14:01:09;6.77;;;5.60;;
9240;SDS011;53485;49.326;9.738;2022-11-20T14:03:34;7.77;;;5.83;;
9240;SDS011;53485;49.326;9.738;2022-11-20T14:06:03;6.47;;;4.50;;
9240;SDS011;53485;49.326;9.738;2022-11-20T14:08:31;5.77;;;4.00;;
9240;SDS011;53485;49.326;9.738;2022-11-20T14:11:04;7.27;;;2.93;;
9240;SDS011;53485;49.326;9.738;2022-11-20T14:13:30;9.57;;;4.80;;
9240;SDS011;53485;49.326;9.738;2022-11-20T14:15:57;8.77;;;6.83;;
9240;SDS011;53485;49.326;9.738;2022-11-20T14:18:25;7.67;;;3.20;;
9240;SDS011;53485;49.326;9.738;2022-11-20T14:20:51;3.57;;;3.27;;
9240;SDS011;53485;49.326;9.738;2022-11-20T14:23:23;5.73;;;2.90;;
9240;SDS011;53485;49.326;9.738;2022-11-20T14:25:50;6.43;;;4.23;;
9240;SDS011;53485;49.326;9.738;2022-11-20T14:28:20;5.00;;;3.80;;
9240;SDS011;53485;49.326;9.738;2022-11-20T14:30:47;2.33;;;2.13;;
9240;SDS011;53485;49.326;9.738;2022-11-20T14:33:13;5.90;;;2.47;;
9240;SDS011;53485;49.326;9.738;2022-11-20T14:35:43;3.63;;;2.00;;
9240;SDS011;53485;49.326;9.738;2022-11-20T14:38:08;10.00;;;9.23;;
9240;SDS011;53485;49.326;9.738;2022-11-20T14:40:34;4.67;;;2.40;;
9240;SDS011;53485;49.326;9.738;2022-11-20T14:43:01;3.43;;;2.10;;
9240;SDS011;53485;49.326;9.738;2022-11-20T14:45:28;4.07;;;2.07;;
9240;SDS011;53485;49.326;9.738;2022-11-20T14:47:55;3.03;;;2.00;;
9240;SDS011;53485;49.326;9.738;2022-11-20T14:50:22;6.07;;;1.83;;
9240;SDS011;53485;49.326;9.738;2022-11-20T14:52:49;5.30;;;1.80;;
9240;SDS011;53485;49.326;9.738;2022-11-20T14:55:24;2.47;;;1.17;;
9240;SDS011;53485;49.326;9.738;2022-11-20T14:57:53;5.03;;;1.10;;
9240;SDS011;53485;49.326;9.738;2022-11-20T15:00:18;2.03;;;1.30;;
9240;SDS011;53485;49.326;9.738;2022-11-20T15:02:45;2.97;;;1.10;;
9240;SDS011;53485;49.326;9.738;2022-11-20T15:05:10;3.63;;;1.07;;
9240;SDS011;53485;49.326;9.738;2022-11-20T15:07:39;1.63;;;1.17;;
9240;SDS011;53485;49.326;9.738;2022-11-20T15:10:05;1.77;;;1.33;;
9240;SDS011;53485;49.326;9.738;2022-11-20T15:12:34;2.80;;;1.40;;
9240;SDS011;53485;49.326;9.738;2022-11-20T15:15:00;2.33;;;1.03;;
9240;SDS011;53485;49.326;9.738;2022-11-20T15:17:27;3.47;;;1.10;;
9240;SDS011;53485;49.326;9.738;2022-11-20T15:19:54;3.97;;;1.40;;
9240;SDS011;53485;49.326;9.738;2022-11-20T15:22:21;2.50;;;0.80;;
9240;SDS011;53485;49.326;9.738;2022-11-20T15:24:48;1.93;;;0.83;;
9240;SDS011;53485;49.326;9.738;2022-11-20T15:27:16;4.83;;;0.70;;
9240;SDS011;53485;49.326;9.738;2022-11-20T15:29:43;3.60;;;0.87;;
9240;SDS011;53485;49.326;9.738;2022-11-20T15:32:10;2.20;;;0.73;;
9240;SDS011;53485;49.326;9.738;2022-11-20T15:34:38;3.67;;;0.90;;
9240;SDS011;53485;49.326;9.738;2022-11-20T15:37:05;3.83;;;1.77;;
9240;SDS011;53485;49.326;9.738;2022-11-20T15:39:32;2.87;;;0.93;;
9240;SDS011;53485;49.326;9.738;2022-11-20T15:42:00;2.00;;;1.00;;